Time;durP1;ratioP1;P1;durP2;ratioP2;P2;SDS_P1;SDS_P2;PMS_P1;PMS_P2;Temp;Humidity;BMP_temperature;BMP_pressure;BME280_temperature;BME280_humidity;BME280_pressure;Samples;Min_cycle;Max_cycle;Signal;HPM_P1;HPM_P2
2024/02/23 00:00:14;;;;;;;179.80;109.97;;;;;13.30;95122.00;;;;5025287;28;20209;-66
2024/02/23 00:03:03;;;;;;;190.47;116.60;;;;;13.40;95119.00;;;;5025707;28;20213;-66
2024/02/23 00:05:52;;;;;;;184.67;111.03;;;;;13.50;95124.00;;;;5022637;28;20264;-67
2024/02/23 00:08:42;;;;;;;199.87;122.77;;;;;13.10;95129.00;;;;5023997;28;20216;-66
2024/02/23 00:11:32;;;;;;;185.10;112.90;;;;;12.80;95124.00;;;;5020405;28;20205;-65
2024/02/23 00:14:23;;;;;;;191.90;114.97;;;;;12.70;95125.00;;;;5017659;28;20212;-66
2024/02/23 00:17:12;;;;;;;184.17;110.90;;;;;12.80;95131.00;;;;5026232;28;20304;-67
2024/02/23 00:20:01;;;;;;;190.47;113.53;;;;;12.90;95130.00;;;;5025583;28;20216;-66
2024/02/23 00:22:50;;;;;;;187.13;110.73;;;;;13.20;95126.00;;;;5024373;28;20675;-66
2024/02/23 00:25:40;;;;;;;205.00;120.37;;;;;12.60;95111.00;;;;5018166;28;20225;-66
2024/02/23 00:28:29;;;;;;;194.73;116.63;;;;;12.50;95104.00;;;;5020913;28;20212;-68
2024/02/23 00:31:19;;;;;;;194.87;114.73;;;;;12.90;95117.00;;;;5021434;28;20709;-66
2024/02/23 00:34:10;;;;;;;193.60;110.70;;;;;12.90;95112.00;;;;5023115;28;20210;-65
2024/02/23 00:36:59;;;;;;;203.67;116.20;;;;;13.30;95119.00;;;;5020551;28;20217;-65
2024/02/23 00:39:49;;;;;;;206.50;115.97;;;;;13.50;95122.00;;;;5020775;28;20205;-65
2024/02/23 00:42:38;;;;;;;216.00;126.33;;;;;13.30;95112.00;;;;5016126;28;20206;-65
2024/02/23 00:45:27;;;;;;;206.20;116.93;;;;;13.10;95116.00;;;;5021527;28;20228;-65
2024/02/23 00:48:17;;;;;;;201.73;115.20;;;;;13.30;95120.00;;;;5018677;28;20212;-66
2024/02/23 00:51:07;;;;;;;202.10;116.13;;;;;13.50;95119.00;;;;5017905;28;20212;-65
2024/02/23 00:53:56;;;;;;;215.43;122.50;;;;;13.50;95120.00;;;;5018935;28;20210;-65
2024/02/23 00:56:45;;;;;;;228.37;130.17;;;;;13.20;95127.00;;;;5017565;28;20218;-66
2024/02/23 00:59:37;;;;;;;232.73;129.80;;;;;13.40;95117.00;;;;5017756;28;20216;-65
2024/02/23 01:02:26;;;;;;;205.57;115.90;;;;;13.50;95121.00;;;;5025411;28;20201;-65
2024/02/23 01:05:16;;;;;;;205.40;114.00;;;;;13.40;95126.00;;;;5026379;28;20233;-65
2024/02/23 01:08:06;;;;;;;210.70;120.63;;;;;13.40;95130.00;;;;5029687;28;20240;-66
2024/02/23 01:10:55;;;;;;;211.30;117.50;;;;;13.30;95122.00;;;;5028031;28;20208;-65
2024/02/23 01:13:44;;;;;;;229.40;127.17;;;;;13.30;95121.00;;;;5025640;28;20212;-65
2024/02/23 01:16:34;;;;;;;227.40;128.23;;;;;13.20;95116.00;;;;5020764;28;20235;-65
2024/02/23 01:19:23;;;;;;;216.40;119.97;;;;;13.20;95117.00;;;;5023401;28;20201;-65
2024/02/23 01:22:14;;;;;;;215.23;117.30;;;;;13.10;95118.00;;;;5024540;28;20250;-65
2024/02/23 01:25:04;;;;;;;208.53;117.97;;;;;13.00;95126.00;;;;5027948;28;20201;-65
2024/02/23 01:27:53;;;;;;;217.30;119.17;;;;;13.00;95120.00;;;;5022524;28;20205;-65
2024/02/23 01:30:42;;;;;;;212.00;118.57;;;;;12.20;95128.00;;;;5026157;28;20213;-64
2024/02/23 01:33:31;;;;;;;212.40;116.30;;;;;12.60;95126.00;;;;5025276;28;20220;-66
2024/02/23 01:36:20;;;;;;;210.53;112.97;;;;;12.10;95128.00;;;;5022183;28;20295;-65
2024/02/23 01:39:11;;;;;;;198.67;108.23;;;;;11.70;95127.00;;;;5022076;28;20206;-65
2024/02/23 01:42:00;;;;;;;203.77;110.60;;;;;11.70;95129.00;;;;5025518;28;20205;-65
2024/02/23 01:44:49;;;;;;;199.10;108.07;;;;;11.10;95128.00;;;;5024919;28;20213;-65
2024/02/23 01:47:38;;;;;;;202.17;109.50;;;;;11.10;95130.00;;;;5025229;28;20233;-65
2024/02/23 01:50:28;;;;;;;194.33;106.17;;;;;11.00;95132.00;;;;5018904;28;20205;-65
2024/02/23 01:53:19;;;;;;;193.53;101.63;;;;;11.00;95138.00;;;;5021851;28;20213;-64
2024/02/23 01:56:10;;;;;;;194.33;99.10;;;;;11.20;95146.00;;;;5025307;28;20225;-65
2024/02/23 01:58:59;;;;;;;220.97;108.07;;;;;11.00;95149.00;;;;5025949;28;20583;-65
2024/02/23 02:01:48;;;;;;;219.17;110.10;;;;;11.00;95143.00;;;;5022859;28;20225;-65
2024/02/23 02:04:37;;;;;;;209.13;104.73;;;;;11.10;95144.00;;;;5023739;28;20214;-64
2024/02/23 02:07:27;;;;;;;203.40;100.17;;;;;10.80;95141.00;;;;5025432;28;20236;-65
2024/02/23 02:10:16;;;;;;;202.97;100.50;;;;;10.80;95157.00;;;;5021928;28;20224;-65
2024/02/23 02:13:07;;;;;;;208.73;101.90;;;;;10.90;95146.00;;;;5024166;28;20221;-65
2024/02/23 02:15:56;;;;;;;218.80;106.93;;;;;10.90;95154.00;;;;5020651;28;20214;-65
2024/02/23 02:18:45;;;;;;;217.37;106.37;;;;;10.90;95151.00;;;;5021630;28;20809;-64
2024/02/23 02:21:35;;;;;;;220.70;107.70;;;;;10.90;95150.00;;;;5022181;28;20220;-65
2024/02/23 02:24:24;;;;;;;233.77;112.83;;;;;10.90;95151.00;;;;5022768;28;20206;-65
2024/02/23 02:27:13;;;;;;;214.60;107.63;;;;;11.00;95145.00;;;;5027483;28;21155;-65
2024/02/23 02:30:04;;;;;;;206.07;99.20;;;;;10.30;95156.00;;;;5025330;28;20213;-65
2024/02/23 02:32:53;;;;;;;210.03;99.83;;;;;10.60;95148.00;;;;5023302;28;20201;-65
2024/02/23 02:35:42;;;;;;;226.53;106.70;;;;;10.60;95140.00;;;;5027218;28;20256;-65
2024/02/23 02:38:33;;;;;;;213.53;103.40;;;;;10.50;95150.00;;;;5025860;28;20220;-65
2024/02/23 02:41:24;;;;;;;213.07;100.87;;;;;10.60;95141.00;;;;5022173;28;20205;-65
2024/02/23 02:44:13;;;;;;;233.30;111.73;;;;;10.20;95152.00;;;;5028453;28;20212;-65
2024/02/23 02:47:04;;;;;;;226.57;107.47;;;;;10.30;95159.00;;;;5023482;28;20865;-64
2024/02/23 02:49:53;;;;;;;223.70;103.67;;;;;10.50;95143.00;;;;5025000;28;20209;-65
2024/02/23 02:52:42;;;;;;;231.10;105.60;;;;;10.10;95151.00;;;;5023841;28;20213;-65
2024/02/23 02:55:31;;;;;;;222.40;100.83;;;;;10.00;95152.00;;;;5024437;28;20205;-65
2024/02/23 02:58:20;;;;;;;224.73;97.60;;;;;9.90;95155.00;;;;5025740;28;20201;-64
2024/02/23 03:01:10;;;;;;;227.03;99.13;;;;;9.50;95158.00;;;;5022770;28;20205;-65
2024/02/23 03:04:00;;;;;;;235.50;102.73;;;;;9.30;95149.00;;;;5022661;28;20208;-65
2024/02/23 03:06:49;;;;;;;244.57;106.47;;;;;9.80;95159.00;;;;5022940;28;20282;-64
2024/02/23 03:09:38;;;;;;;259.00;110.50;;;;;10.00;95160.00;;;;5024187;28;20701;-65
2024/02/23 03:12:27;;;;;;;238.83;97.10;;;;;10.00;95167.00;;;;5024575;28;20216;-65
2024/02/23 03:15:17;;;;;;;252.43;103.07;;;;;10.10;95171.00;;;;5022410;28;20205;-65
2024/02/23 03:18:09;;;;;;;246.20;96.27;;;;;10.00;95163.00;;;;5024793;28;20198;-65
2024/02/23 03:20:59;;;;;;;263.77;100.97;;;;;10.10;95170.00;;;;5024837;28;20228;-64
2024/02/23 03:23:48;;;;;;;290.07;108.03;;;;;9.70;95162.00;;;;5025341;28;20205;-64
2024/02/23 03:26:37;;;;;;;298.23;106.57;;;;;9.80;95158.00;;;;5022862;28;20236;-64
2024/02/23 03:29:29;;;;;;;285.40;99.67;;;;;9.90;95160.00;;;;5021442;28;20565;-65
2024/02/23 03:32:18;;;;;;;283.27;98.07;;;;;9.80;95151.00;;;;5020478;28;20220;-65
2024/02/23 03:35:08;;;;;;;291.73;98.87;;;;;9.80;95157.00;;;;5022686;28;20212;-65
2024/02/23 03:37:59;;;;;;;299.07;97.30;;;;;9.90;95154.00;;;;5023070;28;20745;-64
2024/02/23 03:40:48;;;;;;;316.97;100.30;;;;;9.60;95158.00;;;;5023077;28;20221;-65
2024/02/23 03:43:38;;;;;;;339.00;102.40;;;;;9.80;95164.00;;;;5023022;28;20205;-65
2024/02/23 03:46:27;;;;;;;342.60;94.37;;;;;9.80;95156.00;;;;5024651;28;20221;-65
2024/02/23 03:49:16;;;;;;;347.13;93.20;;;;;9.90;95164.00;;;;5022025;28;20603;-64
2024/02/23 03:52:06;;;;;;;350.67;107.17;;;;;9.40;95161.00;;;;5026824;28;20216;-65
2024/02/23 03:54:56;;;;;;;350.27;104.30;;;;;9.40;95166.00;;;;5024531;28;20217;-64
2024/02/23 03:57:45;;;;;;;353.30;99.70;;;;;9.30;95167.00;;;;5025356;28;20228;-65
2024/02/23 04:00:35;;;;;;;348.10;95.35;;;;;9.70;95168.00;;;;5020037;28;20224;-65
2024/02/23 04:03:24;;;;;;;340.30;92.23;;;;;9.70;95178.00;;;;5026615;28;20212;-65
2024/02/23 04:06:13;;;;;;;343.10;104.20;;;;;9.50;95180.00;;;;5023908;28;20251;-65
2024/02/23 04:09:04;;;;;;;352.17;103.47;;;;;9.40;95178.00;;;;5023370;28;20437;-65
2024/02/23 04:11:55;;;;;;;346.33;99.27;;;;;9.50;95183.00;;;;5020813;28;20531;-65
2024/02/23 04:14:44;;;;;;;360.60;101.70;;;;;9.60;95188.00;;;;5021745;28;20227;-65
2024/02/23 04:17:33;;;;;;;343.93;91.37;;;;;9.60;95191.00;;;;5019100;28;20228;-65
2024/02/23 04:20:22;;;;;;;342.23;92.27;;;;;9.70;95191.00;;;;5022245;28;20288;-65
2024/02/23 04:23:11;;;;;;;340.57;90.40;;;;;9.70;95197.00;;;;5025498;28;20216;-65
2024/02/23 04:26:00;;;;;;;339.83;89.07;;;;;9.80;95211.00;;;;5021415;28;20214;-65
2024/02/23 04:28:51;;;;;;;365.13;105.20;;;;;9.70;95208.00;;;;5022333;28;20197;-65
2024/02/23 04:31:40;;;;;;;355.33;98.40;;;;;9.40;95190.00;;;;5019853;28;20209;-65
2024/02/23 04:34:30;;;;;;;346.30;93.13;;;;;9.30;95193.00;;;;5021203;28;20212;-64
2024/02/23 04:37:19;;;;;;;341.90;91.70;;;;;9.40;95208.00;;;;5017864;28;20307;-64
2024/02/23 04:40:09;;;;;;;343.87;91.27;;;;;9.30;95211.00;;;;5021813;28;20682;-67
2024/02/23 04:42:58;;;;;;;351.63;94.07;;;;;9.20;95211.00;;;;5018597;28;20205;-65
2024/02/23 04:45:48;;;;;;;352.33;97.70;;;;;9.50;95221.00;;;;5020339;28;20237;-65
2024/02/23 04:48:37;;;;;;;359.83;100.80;;;;;9.50;95214.00;;;;5019466;28;20237;-64
2024/02/23 04:51:27;;;;;;;343.07;90.40;;;;;9.60;95215.00;;;;5024075;28;20678;-65
2024/02/23 04:54:16;;;;;;;357.00;99.07;;;;;9.40;95217.00;;;;5025435;28;20706;-65
2024/02/23 04:57:05;;;;;;;344.80;91.73;;;;;9.00;95227.00;;;;5025145;28;20217;-65
2024/02/23 04:59:54;;;;;;;348.10;93.63;;;;;9.40;95234.00;;;;5020488;28;20202;-65
2024/02/23 05:02:44;;;;;;;352.17;94.67;;;;;9.50;95221.00;;;;5022844;28;20216;-65
2024/02/23 05:05:34;;;;;;;337.57;87.63;;;;;9.10;95237.00;;;;5019859;28;20235;-64
2024/02/23 05:08:24;;;;;;;347.53;91.97;;;;;9.00;95234.00;;;;5037328;22;20308;-67
2024/02/23 05:11:15;;;;;;;340.60;87.20;;;;;9.30;95238.00;;;;5023213;28;20197;-68
2024/02/23 05:14:04;;;;;;;355.30;94.80;;;;;9.40;95248.00;;;;5023230;28;21002;-68
2024/02/23 05:16:53;;;;;;;342.30;88.70;;;;;9.10;95245.00;;;;5020414;28;21001;-68
2024/02/23 05:19:47;;;;;;;367.27;104.83;;;;;8.90;95235.00;;;;5010248;28;20447;-68
2024/02/23 05:22:36;;;;;;;349.87;94.97;;;;;9.00;95241.00;;;;5015092;28;20432;-68
2024/02/23 05:25:25;;;;;;;345.57;98.50;;;;;9.20;95235.00;;;;5009953;28;20220;-68
2024/02/23 05:28:15;;;;;;;339.07;94.93;;;;;9.20;95232.00;;;;5012899;28;20462;-68
2024/02/23 05:31:04;;;;;;;347.20;106.87;;;;;9.00;95241.00;;;;5015876;28;20442;-68
2024/02/23 05:33:53;;;;;;;352.90;102.10;;;;;9.00;95243.00;;;;5002799;28;20985;-68
2024/02/23 05:36:45;;;;;;;353.50;100.97;;;;;9.10;95242.00;;;;5004839;28;20445;-68
2024/02/23 05:39:34;;;;;;;356.20;97.20;;;;;9.10;95247.00;;;;5001320;28;20432;-68
2024/02/23 05:42:23;;;;;;;342.60;89.07;;;;;9.10;95228.00;;;;5002618;28;20463;-67
2024/02/23 05:45:12;;;;;;;348.90;92.40;;;;;8.80;95248.00;;;;5012259;28;20436;-68
2024/02/23 05:48:02;;;;;;;347.60;100.47;;;;;8.70;95222.00;;;;5010631;28;20709;-68
2024/02/23 05:50:51;;;;;;;355.30;104.03;;;;;8.60;95233.00;;;;5010182;28;20463;-67
2024/02/23 05:53:42;;;;;;;354.50;100.90;;;;;8.60;95232.00;;;;5016949;28;20448;-68
2024/02/23 05:56:31;;;;;;;344.17;90.33;;;;;8.70;95238.00;;;;5004652;28;20440;-67
2024/02/23 05:59:20;;;;;;;340.27;88.07;;;;;8.80;95221.00;;;;5010027;28;20213;-68
2024/02/23 06:02:09;;;;;;;347.07;93.60;;;;;8.90;95219.00;;;;5015713;28;20584;-67
2024/02/23 06:04:58;;;;;;;341.67;93.80;;;;;8.70;95215.00;;;;5015277;28;20385;-68
2024/02/23 06:07:47;;;;;;;351.73;95.67;;;;;8.00;95227.00;;;;5008614;28;20233;-67
2024/02/23 06:10:38;;;;;;;353.07;100.47;;;;;8.10;95219.00;;;;5013040;28;20205;-67
2024/02/23 06:13:27;;;;;;;342.53;88.90;;;;;8.50;95237.00;;;;5014764;28;20440;-67
2024/02/23 06:16:16;;;;;;;346.97;90.87;;;;;8.70;95238.00;;;;5008550;28;20460;-68
2024/02/23 06:19:05;;;;;;;348.90;93.33;;;;;8.50;95248.00;;;;5007821;28;20777;-68
2024/02/23 06:21:54;;;;;;;341.07;86.20;;;;;8.30;95241.00;;;;5018321;28;20461;-68
2024/02/23 06:24:43;;;;;;;350.17;91.30;;;;;8.10;95246.00;;;;5014417;28;20432;-68
2024/02/23 06:27:34;;;;;;;350.00;97.83;;;;;8.20;95249.00;;;;5008029;28;21015;-67
2024/02/23 06:30:23;;;;;;;340.67;89.40;;;;;8.10;95256.00;;;;5008689;28;20951;-67
2024/02/23 06:33:12;;;;;;;491.67;200.93;;;;;8.30;95257.00;;;;4921227;28;20445;-68
2024/02/23 06:36:01;;;;;;;424.40;151.17;;;;;8.70;95250.00;;;;4916792;28;20868;-67
2024/02/23 06:38:51;;;;;;;491.63;198.63;;;;;8.50;95254.00;;;;4919157;28;21160;-67
2024/02/23 06:41:41;;;;;;;415.03;130.70;;;;;8.40;95256.00;;;;4918230;28;20442;-67
2024/02/23 06:44:31;;;;;;;491.83;196.23;;;;;8.50;95258.00;;;;4925456;28;20491;-67
2024/02/23 06:47:21;;;;;;;417.83;134.70;;;;;8.50;95255.00;;;;4918747;28;20473;-67
2024/02/23 06:50:10;;;;;;;485.33;187.27;;;;;8.60;95256.00;;;;4922998;28;21195;-67
2024/02/23 06:53:00;;;;;;;344.60;88.30;;;;;8.50;95257.00;;;;4972503;28;20441;-67
2024/02/23 06:55:49;;;;;;;418.27;137.53;;;;;8.20;95251.00;;;;4996601;28;21833;-67
2024/02/23 06:58:38;;;;;;;355.37;101.83;;;;;8.50;95255.00;;;;5000816;28;20426;-67
2024/02/23 07:01:30;;;;;;;393.43;115.53;;;;;8.60;95249.00;;;;4959078;28;20449;-67
2024/02/23 07:04:19;;;;;;;508.47;209.50;;;;;8.10;95243.00;;;;4927018;28;20433;-67
2024/02/23 07:07:09;;;;;;;518.47;207.53;;;;;7.90;95258.00;;;;4923070;28;20480;-68
2024/02/23 07:09:58;;;;;;;449.20;166.17;;;;;8.50;95261.00;;;;4922765;28;20476;-68
2024/02/23 07:12:48;;;;;;;492.93;192.83;;;;;8.70;95261.00;;;;4921255;28;20503;-67
2024/02/23 07:15:37;;;;;;;406.67;133.77;;;;;8.80;95267.00;;;;4915147;28;22403;-67
2024/02/23 07:18:28;;;;;;;511.60;234.97;;;;;9.00;95256.00;;;;4917610;28;20462;-67
2024/02/23 07:21:19;;;;;;;338.83;88.20;;;;;8.90;95261.00;;;;5009545;28;20557;-67
2024/02/23 07:24:09;;;;;;;343.23;91.47;;;;;8.80;95268.00;;;;5003758;28;20205;-67
2024/02/23 07:26:58;;;;;;;337.77;106.03;;;;;8.80;95272.00;;;;5007952;28;20222;-67
2024/02/23 07:29:48;;;;;;;352.80;98.30;;;;;8.50;95279.00;;;;5002673;28;20234;-67
2024/02/23 07:32:37;;;;;;;340.77;92.67;;;;;8.10;95282.00;;;;4990796;28;20202;-67
2024/02/23 07:35:27;;;;;;;334.03;93.50;;;;;8.40;95293.00;;;;5007894;28;20220;-67
2024/02/23 07:38:17;;;;;;;347.27;90.40;;;;;8.70;95288.00;;;;5010233;28;20222;-67
2024/02/23 07:41:07;;;;;;;351.07;100.07;;;;;8.40;95284.00;;;;5009673;28;20214;-67
2024/02/23 07:43:56;;;;;;;352.93;112.17;;;;;8.70;95293.00;;;;5010162;28;20464;-67
2024/02/23 07:46:45;;;;;;;361.20;103.93;;;;;8.50;95295.00;;;;5008401;28;20471;-67
2024/02/23 07:49:34;;;;;;;356.03;96.17;;;;;9.00;95291.00;;;;5013553;28;20235;-67
2024/02/23 07:52:25;;;;;;;343.47;88.33;;;;;8.80;95290.00;;;;5007804;28;20629;-67
2024/02/23 07:55:14;;;;;;;343.47;99.13;;;;;9.30;95293.00;;;;5016917;28;20201;-67
2024/02/23 07:58:04;;;;;;;337.53;90.17;;;;;9.20;95287.00;;;;5010172;28;20552;-68
2024/02/23 08:00:54;;;;;;;356.77;97.73;;;;;8.70;95287.00;;;;5013546;28;20976;-68
2024/02/23 08:03:43;;;;;;;361.67;109.20;;;;;8.50;95297.00;;;;5019427;28;20202;-67
2024/02/23 08:06:32;;;;;;;341.53;86.80;;;;;8.30;95296.00;;;;5008862;28;20437;-67
2024/02/23 08:09:23;;;;;;;350.13;113.97;;;;;8.70;95301.00;;;;5007517;28;20226;-67
2024/02/23 08:12:13;;;;;;;339.20;88.30;;;;;8.70;95294.00;;;;5018435;28;20494;-67
2024/02/23 08:15:03;;;;;;;349.97;113.87;;;;;8.90;95307.00;;;;5011183;28;20594;-67
2024/02/23 08:17:52;;;;;;;364.13;115.90;;;;;8.80;95310.00;;;;5004373;28;20527;-67
2024/02/23 08:20:42;;;;;;;276.13;97.43;;;;;8.90;95316.00;;;;5006908;28;20445;-67
2024/02/23 08:23:31;;;;;;;270.97;92.40;;;;;8.90;95306.00;;;;5014167;28;20208;-67
2024/02/23 08:26:22;;;;;;;283.80;94.27;;;;;8.80;95301.00;;;;5010911;28;20217;-67
2024/02/23 08:29:11;;;;;;;295.50;90.97;;;;;8.60;95308.00;;;;5009152;28;20237;-67
2024/02/23 08:32:00;;;;;;;313.23;93.60;;;;;8.90;95297.00;;;;5008075;28;20213;-67
2024/02/23 08:34:50;;;;;;;316.20;97.87;;;;;8.80;95298.00;;;;5006644;28;20224;-68
2024/02/23 08:37:39;;;;;;;313.43;89.23;;;;;8.90;95310.00;;;;5004685;28;20350;-67
2024/02/23 08:40:28;;;;;;;334.97;91.57;;;;;8.90;95306.00;;;;5005501;28;20198;-68
2024/02/23 08:43:19;;;;;;;343.23;93.93;;;;;8.30;95300.00;;;;5007154;28;20208;-68
2024/02/23 08:46:09;;;;;;;347.30;100.13;;;;;8.80;95316.00;;;;5007624;28;20203;-68
2024/02/23 08:48:58;;;;;;;355.77;112.60;;;;;9.10;95318.00;;;;5005033;28;20218;-68
2024/02/23 08:51:47;;;;;;;328.27;99.60;;;;;9.20;95318.00;;;;5006094;28;20426;-68
2024/02/23 08:54:37;;;;;;;320.33;91.70;;;;;9.00;95317.00;;;;5003753;28;20210;-68
2024/02/23 08:57:27;;;;;;;320.37;92.70;;;;;9.30;95309.00;;;;5002477;28;20225;-68
2024/02/23 09:00:18;;;;;;;320.87;90.77;;;;;9.50;95321.00;;;;5006602;28;20210;-68
2024/02/23 09:03:07;;;;;;;313.83;89.77;;;;;9.10;95320.00;;;;5008023;28;20209;-68
2024/02/23 09:05:56;;;;;;;333.80;96.23;;;;;9.40;95329.00;;;;5005020;28;20648;-68
2024/02/23 09:08:45;;;;;;;346.10;102.23;;;;;9.50;95322.00;;;;4999454;28;20216;-68
2024/02/23 09:11:36;;;;;;;327.47;90.03;;;;;9.30;95310.00;;;;5005322;28;20592;-68
2024/02/23 09:14:25;;;;;;;342.10;97.20;;;;;9.00;95323.00;;;;5005739;28;20267;-68
2024/02/23 09:17:16;;;;;;;328.40;88.50;;;;;9.20;95314.00;;;;5005843;28;20225;-68
2024/02/23 09:20:07;;;;;;;344.47;93.53;;;;;9.60;95320.00;;;;5006240;28;20580;-68
2024/02/23 09:22:56;;;;;;;367.20;125.37;;;;;9.70;95307.00;;;;5003341;28;20214;-68
2024/02/23 09:25:45;;;;;;;353.57;99.53;;;;;9.70;95298.00;;;;5006118;28;20201;-67
2024/02/23 09:28:34;;;;;;;342.80;113.37;;;;;9.90;95298.00;;;;5004826;28;20597;-68
2024/02/23 09:31:23;;;;;;;348.47;96.80;;;;;9.60;95311.00;;;;5004462;28;20202;-68
2024/02/23 09:34:14;;;;;;;350.43;106.07;;;;;9.50;95303.00;;;;5010908;28;20202;-68
2024/02/23 09:37:04;;;;;;;346.57;100.63;;;;;9.90;95309.00;;;;5009584;28;20222;-68
2024/02/23 09:39:53;;;;;;;363.73;102.80;;;;;9.30;95312.00;;;;5005438;28;20206;-68
2024/02/23 09:42:43;;;;;;;361.87;113.83;;;;;9.20;95310.00;;;;5007294;28;20299;-68
2024/02/23 09:45:32;;;;;;;349.37;100.43;;;;;9.50;95301.00;;;;5004435;28;20213;-68
2024/02/23 09:48:22;;;;;;;343.53;94.13;;;;;9.90;95300.00;;;;5006447;28;20229;-68
2024/02/23 09:51:13;;;;;;;337.33;92.60;;;;;9.90;95301.00;;;;4999648;28;20237;-68
2024/02/23 09:54:03;;;;;;;320.50;101.80;;;;;9.90;95305.00;;;;5009423;28;20206;-68
2024/02/23 09:56:53;;;;;;;320.67;101.27;;;;;9.80;95303.00;;;;5007723;28;20222;-68
2024/02/23 09:59:42;;;;;;;329.73;107.97;;;;;9.70;95292.00;;;;5010305;28;20676;-68
2024/02/23 10:02:31;;;;;;;305.83;95.17;;;;;9.60;95287.00;;;;5005866;28;20213;-68
2024/02/23 10:05:21;;;;;;;303.47;95.67;;;;;9.40;95305.00;;;;5005574;28;20244;-68
2024/02/23 10:08:12;;;;;;;320.63;96.63;;;;;9.20;95308.00;;;;5008801;28;20246;-68
2024/02/23 10:11:02;;;;;;;339.13;94.90;;;;;9.70;95288.00;;;;5009942;28;20225;-68
2024/02/23 10:13:52;;;;;;;356.37;97.83;;;;;9.70;95301.00;;;;5010736;28;20205;-68
2024/02/23 10:16:41;;;;;;;355.83;98.50;;;;;9.90;95297.00;;;;5009939;28;20246;-68
2024/02/23 10:19:31;;;;;;;348.90;94.93;;;;;9.50;95297.00;;;;5009914;28;20233;-68
2024/02/23 10:22:21;;;;;;;345.87;92.83;;;;;9.70;95286.00;;;;5008066;28;20217;-68
2024/02/23 10:25:12;;;;;;;343.47;93.10;;;;;9.80;95288.00;;;;5010228;28;20210;-68
2024/02/23 10:28:02;;;;;;;343.30;92.47;;;;;9.80;95289.00;;;;5008502;28;20273;-69
2024/02/23 10:30:52;;;;;;;346.97;90.53;;;;;9.60;95286.00;;;;5009912;28;20222;-68
2024/02/23 10:33:41;;;;;;;350.23;95.73;;;;;9.30;95289.00;;;;5009952;28;20194;-68
2024/02/23 10:36:32;;;;;;;347.53;93.57;;;;;9.60;95283.00;;;;5006040;28;20573;-68
2024/02/23 10:39:22;;;;;;;347.83;94.43;;;;;9.90;95293.00;;;;5004857;28;20202;-68
2024/02/23 10:42:16;;;;;;;349.27;97.20;;;;;9.70;95278.00;;;;5010142;28;20216;-68
2024/02/23 10:45:06;;;;;;;358.43;132.97;;;;;9.90;95270.00;;;;5009696;28;20206;-69
2024/02/23 10:47:57;;;;;;;307.00;99.93;;;;;9.80;95274.00;;;;5008065;28;20237;-69
2024/02/23 10:50:46;;;;;;;309.17;100.40;;;;;9.80;95263.00;;;;5007225;28;20249;-68
2024/02/23 10:53:36;;;;;;;315.67;99.10;;;;;9.90;95263.00;;;;5010396;28;20206;-68
2024/02/23 10:56:25;;;;;;;310.90;93.23;;;;;10.10;95252.00;;;;5004783;28;20202;-67
2024/02/23 10:59:18;;;;;;;309.40;94.70;;;;;9.80;95261.00;;;;5008334;28;20247;-69
2024/02/23 11:02:08;;;;;;;312.27;95.73;;;;;9.60;95252.00;;;;5007452;28;20194;-69
2024/02/23 11:04:57;;;;;;;345.03;100.27;;;;;8.90;95246.00;;;;5007463;28;20233;-68
2024/02/23 11:07:49;;;;;;;355.17;109.27;;;;;9.30;95245.00;;;;5006852;28;20233;-68
2024/02/23 11:10:44;;;;;;;331.93;93.20;;;;;9.50;95232.00;;;;5004385;28;20221;-68
2024/02/23 11:13:35;;;;;;;342.50;92.73;;;;;9.60;95223.00;;;;5003507;28;20202;-68
2024/02/23 11:16:27;;;;;;;344.67;92.37;;;;;9.80;95243.00;;;;5008752;28;20202;-68
2024/02/23 11:19:16;;;;;;;338.57;89.60;;;;;9.80;95239.00;;;;5010189;28;20213;-68
2024/02/23 11:22:10;;;;;;;343.63;90.97;;;;;9.40;95234.00;;;;5005631;28;20281;-68
2024/02/23 11:25:02;;;;;;;339.57;91.90;;;;;10.10;95231.00;;;;5009460;28;20751;-68
2024/02/23 11:27:52;;;;;;;353.40;94.73;;;;;10.30;95229.00;;;;5010428;28;20775;-68
2024/02/23 11:30:48;;;;;;;347.43;105.37;;;;;10.30;95222.00;;;;5007954;28;20235;-68
2024/02/23 11:33:39;;;;;;;349.57;104.00;;;;;10.50;95235.00;;;;5006333;28;20436;-68
2024/02/23 11:36:30;;;;;;;360.50;135.97;;;;;10.50;95222.00;;;;5005387;28;20211;-69
2024/02/23 11:39:21;;;;;;;342.87;96.60;;;;;10.60;95221.00;;;;5004695;28;20203;-68
2024/02/23 11:42:10;;;;;;;344.30;98.23;;;;;10.50;95221.00;;;;5004962;28;20199;-69
2024/02/23 11:44:59;;;;;;;346.57;99.57;;;;;10.50;95218.00;;;;5006859;28;20214;-69
2024/02/23 11:47:50;;;;;;;356.93;104.70;;;;;10.70;95213.00;;;;5007870;28;20242;-69
2024/02/23 11:50:40;;;;;;;345.60;95.63;;;;;10.70;95202.00;;;;5002389;28;20233;-69
2024/02/23 11:53:30;;;;;;;348.17;98.17;;;;;10.40;95203.00;;;;5006519;28;20213;-69
2024/02/23 11:56:20;;;;;;;348.00;104.10;;;;;10.50;95212.00;;;;5000921;28;20206;-69
2024/02/23 11:59:10;;;;;;;352.80;116.83;;;;;9.90;95207.00;;;;5007421;28;20202;-69
2024/02/23 12:01:59;;;;;;;362.57;139.90;;;;;10.50;95219.00;;;;5007068;28;20207;-69
2024/02/23 12:04:49;;;;;;;353.97;110.17;;;;;10.60;95212.00;;;;5006392;28;20206;-69
2024/02/23 12:07:40;;;;;;;345.73;101.10;;;;;10.20;95196.00;;;;4999642;28;20242;-69
2024/02/23 12:10:29;;;;;;;351.90;98.60;;;;;10.60;95209.00;;;;5002065;28;20757;-69
2024/02/23 12:13:18;;;;;;;343.20;95.83;;;;;10.10;95194.00;;;;5005158;28;20206;-69
2024/02/23 12:16:09;;;;;;;342.63;91.37;;;;;10.20;95196.00;;;;5007836;28;20206;-69
2024/02/23 12:18:58;;;;;;;365.00;104.63;;;;;10.60;95197.00;;;;5007015;28;20213;-69
2024/02/23 12:21:47;;;;;;;348.90;97.30;;;;;10.80;95207.00;;;;5002003;28;20566;-69
2024/02/23 12:24:38;;;;;;;343.17;105.20;;;;;9.90;95197.00;;;;5005047;28;20202;-69
2024/02/23 12:27:29;;;;;;;349.23;107.30;;;;;10.20;95194.00;;;;5002346;28;20227;-69
2024/02/23 12:30:18;;;;;;;326.67;101.43;;;;;10.60;95197.00;;;;5000925;28;20206;-69
2024/02/23 12:33:08;;;;;;;345.60;97.73;;;;;10.20;95192.00;;;;5007428;28;20198;-68
2024/02/23 12:35:57;;;;;;;354.97;98.73;;;;;10.70;95185.00;;;;5002732;28;20201;-69
2024/02/23 12:38:46;;;;;;;355.15;113.15;;;;;10.70;95181.00;;;;5007047;28;20205;-69
2024/02/23 12:41:37;;;;;;;345.60;99.75;;;;;10.80;95170.00;;;;5000930;28;20284;-69
2024/02/23 12:44:26;;;;;;;359.37;101.00;;;;;10.40;95171.00;;;;5004031;28;20257;-70
2024/02/23 12:47:15;;;;;;;347.00;93.60;;;;;10.40;95171.00;;;;5005169;28;20230;-69
2024/02/23 12:50:05;;;;;;;327.97;99.20;;;;;10.40;95172.00;;;;5003378;28;20210;-69
2024/02/23 12:52:54;;;;;;;355.17;100.77;;;;;10.50;95173.00;;;;5006815;28;20687;-69
2024/02/23 12:55:43;;;;;;;351.43;98.77;;;;;10.80;95167.00;;;;5005242;28;20584;-69
2024/02/23 12:58:34;;;;;;;343.60;109.67;;;;;10.70;95162.00;;;;5001376;28;20225;-69
2024/02/23 13:01:23;;;;;;;331.13;97.27;;;;;10.80;95163.00;;;;5000973;28;20198;-69
2024/02/23 13:04:14;;;;;;;331.97;101.27;;;;;10.00;95140.00;;;;5009192;28;20209;-69
2024/02/23 13:07:03;;;;;;;322.40;102.80;;;;;10.70;95137.00;;;;5010563;28;20237;-69
2024/02/23 13:09:52;;;;;;;343.77;107.03;;;;;10.10;95139.00;;;;5008748;28;20202;-69
2024/02/23 13:12:41;;;;;;;324.90;99.00;;;;;10.70;95136.00;;;;5011642;28;20581;-68
2024/02/23 13:15:31;;;;;;;322.73;98.17;;;;;10.60;95146.00;;;;5004992;28;20225;-68
2024/02/23 13:18:21;;;;;;;327.27;99.03;;;;;10.30;95136.00;;;;5010825;28;20237;-69
2024/02/23 13:21:11;;;;;;;335.67;100.13;;;;;10.40;95125.00;;;;5011181;28;21063;-69
2024/02/23 13:24:00;;;;;;;339.00;102.90;;;;;10.50;95127.00;;;;5008141;28;20210;-69
2024/02/23 13:26:49;;;;;;;339.77;103.40;;;;;10.60;95132.00;;;;5011094;28;20226;-68
2024/02/23 13:29:38;;;;;;;342.60;107.27;;;;;10.70;95118.00;;;;5009627;28;20202;-69
2024/02/23 13:32:29;;;;;;;320.13;101.17;;;;;10.50;95116.00;;;;5005804;28;20304;-68
2024/02/23 13:35:18;;;;;;;302.63;99.83;;;;;10.70;95122.00;;;;5007678;28;20234;-68
2024/02/23 13:38:07;;;;;;;319.50;101.97;;;;;10.70;95108.00;;;;5006364;28;20237;-68